createdAt,value
2018-07-23T00:01:15.980Z,17.60
2018-07-23T00:03:43.593Z,17.60
2018-07-23T00:06:11.167Z,17.60
2018-07-23T00:08:38.823Z,17.60
2018-07-23T00:11:06.387Z,17.60
2018-07-23T00:13:33.928Z,17.40
2018-07-23T00:16:01.500Z,17.40
2018-07-23T00:18:29.176Z,17.30
2018-07-23T00:20:56.916Z,17.30
2018-07-23T00:23:24.442Z,17.40
2018-07-23T00:25:52.012Z,17.40
2018-07-23T00:28:19.563Z,17.50
2018-07-23T00:30:47.157Z,17.50
2018-07-23T00:33:14.679Z,17.40
2018-07-23T00:35:42.217Z,17.50
2018-07-23T00:38:09.760Z,17.40
2018-07-23T00:40:37.342Z,17.40
2018-07-23T00:43:04.859Z,17.40
2018-07-23T00:45:32.440Z,17.30
2018-07-23T00:48:00.032Z,17.30
2018-07-23T00:50:27.544Z,17.30
2018-07-23T00:52:55.364Z,17.30
2018-07-23T00:55:22.867Z,17.30
2018-07-23T00:57:50.414Z,17.30
2018-07-23T01:00:18.391Z,17.30
2018-07-23T01:02:45.951Z,17.30
2018-07-23T01:05:13.460Z,17.30
2018-07-23T01:07:41.039Z,17.30
2018-07-23T01:10:08.553Z,17.30
2018-07-23T01:12:36.183Z,17.30
2018-07-23T01:15:04.099Z,17.30
2018-07-23T01:17:31.912Z,17.30
2018-07-23T01:20:00.040Z,17.20
2018-07-23T01:22:28.167Z,17.20
2018-07-23T01:24:56.637Z,17.20
2018-07-23T01:27:24.280Z,17.10
2018-07-23T01:29:51.974Z,17.10
2018-07-23T01:32:19.931Z,17.00
2018-07-23T01:34:47.605Z,17.00
2018-07-23T01:37:15.683Z,17.00
2018-07-23T01:39:43.243Z,17.00
2018-07-23T01:42:10.847Z,17.00
2018-07-23T01:44:38.459Z,17.00
2018-07-23T01:47:06.804Z,16.80
2018-07-23T01:49:34.495Z,16.70
2018-07-23T01:52:02.166Z,16.70
2018-07-23T01:54:29.751Z,16.60
2018-07-23T01:56:57.367Z,16.60
2018-07-23T01:59:25.043Z,16.50
2018-07-23T02:01:52.622Z,16.40
2018-07-23T02:04:20.167Z,16.40
2018-07-23T02:06:47.713Z,16.30
2018-07-23T02:09:15.240Z,16.40
2018-07-23T02:11:42.942Z,16.30
2018-07-23T02:14:10.472Z,16.30
2018-07-23T02:16:37.971Z,16.30
2018-07-23T02:19:06.052Z,16.40
2018-07-23T02:21:34.468Z,16.40
2018-07-23T02:24:02.362Z,16.30
2018-07-23T02:26:30.103Z,16.20
2018-07-23T02:28:57.628Z,16.20
2018-07-23T02:31:25.560Z,16.20
2018-07-23T02:33:53.186Z,16.10
2018-07-23T02:36:20.811Z,16.00
2018-07-23T02:38:48.537Z,16.00
2018-07-23T02:41:16.131Z,16.00
2018-07-23T02:43:43.828Z,16.00
2018-07-23T02:46:11.359Z,16.00
2018-07-23T02:48:38.886Z,16.00
2018-07-23T02:51:06.456Z,16.00
2018-07-23T02:53:34.021Z,16.00
2018-07-23T02:56:01.649Z,16.00
2018-07-23T02:58:29.176Z,16.00
2018-07-23T03:00:57.108Z,16.00
2018-07-23T03:03:24.644Z,16.00
2018-07-23T03:05:52.228Z,15.90
2018-07-23T03:08:19.844Z,15.70
2018-07-23T03:10:48.147Z,15.70
2018-07-23T03:13:15.783Z,15.80
2018-07-23T03:15:43.383Z,15.80
2018-07-23T03:18:11.271Z,15.80
2018-07-23T03:20:38.796Z,15.70
2018-07-23T03:23:06.415Z,15.70
2018-07-23T03:25:33.932Z,15.60
2018-07-23T03:28:01.679Z,15.60
2018-07-23T03:30:29.193Z,15.60
2018-07-23T03:32:56.814Z,15.60
2018-07-23T03:35:24.370Z,15.60
2018-07-23T03:37:51.957Z,15.60
2018-07-23T03:40:19.664Z,15.50
2018-07-23T03:42:47.196Z,15.60
2018-07-23T03:45:14.717Z,15.60
2018-07-23T03:47:42.345Z,15.50
2018-07-23T03:50:09.943Z,15.60
2018-07-23T03:52:37.459Z,15.60
2018-07-23T03:55:05.051Z,15.70
2018-07-23T03:57:32.731Z,15.70
2018-07-23T04:00:00.303Z,15.60
2018-07-23T04:02:27.835Z,15.60
2018-07-23T04:04:55.625Z,15.70
2018-07-23T04:07:23.615Z,15.80
2018-07-23T04:09:51.285Z,15.80
2018-07-23T04:12:19.298Z,15.70
2018-07-23T04:14:47.062Z,15.70
2018-07-23T04:17:14.768Z,15.80
2018-07-23T04:19:42.552Z,15.80
2018-07-23T04:22:12.003Z,15.80
2018-07-23T04:24:39.717Z,15.80
2018-07-23T04:27:07.276Z,15.90
2018-07-23T04:29:34.778Z,16.00
2018-07-23T04:32:02.492Z,16.20
2018-07-23T04:34:30.063Z,16.30
2018-07-23T04:36:57.611Z,16.40
2018-07-23T04:39:25.213Z,16.50
2018-07-23T04:41:52.837Z,16.60
2018-07-23T04:44:20.430Z,16.70
2018-07-23T04:46:47.979Z,16.80
2018-07-23T04:49:15.560Z,16.80
2018-07-23T04:51:43.117Z,16.70
2018-07-23T04:54:10.672Z,16.80
2018-07-23T04:56:38.372Z,16.90
2018-07-23T04:59:05.969Z,17.00
2018-07-23T05:01:33.572Z,17.10
2018-07-23T05:06:28.501Z,17.10
2018-07-23T05:08:56.020Z,17.20
2018-07-23T05:11:23.669Z,17.20
2018-07-23T05:13:51.219Z,17.30
2018-07-23T05:16:18.832Z,17.30
2018-07-23T05:18:46.545Z,17.40
2018-07-23T05:21:14.069Z,17.40
2018-07-23T05:23:41.596Z,17.50
2018-07-23T05:26:09.319Z,17.50
2018-07-23T05:28:36.915Z,17.60
2018-07-23T05:31:04.656Z,17.60
2018-07-23T05:33:32.408Z,17.70
2018-07-23T05:36:00.047Z,17.70
2018-07-23T05:38:27.648Z,17.70
2018-07-23T05:40:55.312Z,17.70
2018-07-23T05:43:22.856Z,17.70
2018-07-23T05:45:50.367Z,17.80
2018-07-23T05:48:17.976Z,17.90
2018-07-23T05:50:45.495Z,18.00
2018-07-23T05:53:13.090Z,18.10
2018-07-23T05:55:40.996Z,18.10
2018-07-23T05:58:08.592Z,18.30
2018-07-23T06:00:36.156Z,18.40
2018-07-23T06:03:03.687Z,18.90
2018-07-23T06:05:31.220Z,19.20
2018-07-23T06:07:58.780Z,19.50
2018-07-23T06:10:26.624Z,19.50
2018-07-23T06:15:21.677Z,19.70
2018-07-23T06:17:49.494Z,20.00
2018-07-23T06:20:17.069Z,20.10
2018-07-23T06:22:44.603Z,20.20
2018-07-23T06:25:12.244Z,20.10
2018-07-23T06:27:39.899Z,20.30
2018-07-23T06:30:09.203Z,20.50
2018-07-23T06:32:36.815Z,20.70
2018-07-23T06:35:04.493Z,20.80
2018-07-23T06:37:32.102Z,20.90
2018-07-23T06:39:59.698Z,21.10
2018-07-23T06:42:27.413Z,21.20
2018-07-23T06:44:54.917Z,21.30
2018-07-23T06:47:22.413Z,21.50
2018-07-23T06:49:49.913Z,21.70
2018-07-23T06:52:17.540Z,22.00
2018-07-23T06:54:45.181Z,22.10
2018-07-23T06:57:13.073Z,22.20
2018-07-23T06:59:40.762Z,22.20
2018-07-23T07:02:08.295Z,22.30
2018-07-23T07:04:35.804Z,22.30
2018-07-23T07:07:03.521Z,22.30
2018-07-23T07:09:31.179Z,22.10
2018-07-23T07:11:58.846Z,22.20
2018-07-23T07:14:26.376Z,22.00
2018-07-23T07:16:56.496Z,22.30
2018-07-23T07:19:24.030Z,22.30
2018-07-23T07:21:51.664Z,22.40
2018-07-23T07:24:19.441Z,22.70
2018-07-23T07:26:47.241Z,22.90
2018-07-23T07:29:14.791Z,23.10
2018-07-23T07:31:42.351Z,23.30
2018-07-23T07:34:09.858Z,23.40
2018-07-23T07:36:37.374Z,23.40
2018-07-23T07:39:08.885Z,23.30
2018-07-23T07:41:36.509Z,23.40
2018-07-23T07:44:04.191Z,23.70
2018-07-23T07:46:31.860Z,23.70
2018-07-23T07:48:59.366Z,23.80
2018-07-23T07:51:27.296Z,24.00
2018-07-23T07:53:55.024Z,24.00
2018-07-23T07:56:22.540Z,24.10
2018-07-23T07:58:50.223Z,24.10
2018-07-23T08:01:17.878Z,24.00
2018-07-23T08:03:45.459Z,24.10
2018-07-23T08:06:13.016Z,24.30
2018-07-23T08:08:40.582Z,24.50
2018-07-23T08:11:09.100Z,24.40
2018-07-23T08:13:36.829Z,24.20
2018-07-23T08:16:04.480Z,24.50
2018-07-23T08:18:32.063Z,24.70
2018-07-23T08:20:59.589Z,24.50
2018-07-23T08:23:27.179Z,24.70
2018-07-23T08:25:54.663Z,24.90
2018-07-23T08:28:22.272Z,24.90
2018-07-23T08:30:49.780Z,25.10
2018-07-23T08:33:17.484Z,25.20
2018-07-23T08:35:45.051Z,24.90
2018-07-23T08:38:12.719Z,25.10
2018-07-23T08:40:40.292Z,25.20
2018-07-23T08:43:07.879Z,25.30
2018-07-23T08:45:35.537Z,25.10
2018-07-23T08:48:03.128Z,25.10
2018-07-23T08:50:30.791Z,25.00
2018-07-23T08:52:58.487Z,25.00
2018-07-23T08:55:26.379Z,25.20
2018-07-23T08:57:53.959Z,25.30
2018-07-23T09:00:21.499Z,25.50
2018-07-23T09:02:49.344Z,25.60
2018-07-23T09:05:17.357Z,25.40
2018-07-23T09:07:44.885Z,25.40
2018-07-23T09:10:12.382Z,25.50
2018-07-23T09:12:39.929Z,25.50
2018-07-23T09:15:07.504Z,25.60
2018-07-23T09:17:35.097Z,25.60
2018-07-23T09:20:03.388Z,25.60
2018-07-23T09:22:31.036Z,26.00
2018-07-23T09:24:58.723Z,25.40
2018-07-23T09:27:26.184Z,25.70
2018-07-23T09:29:53.691Z,26.20
2018-07-23T09:32:21.164Z,26.30
2018-07-23T09:34:48.639Z,26.40
2018-07-23T09:37:16.128Z,26.50
2018-07-23T09:39:43.851Z,26.50
2018-07-23T09:42:11.411Z,26.30
2018-07-23T09:44:38.896Z,26.60
2018-07-23T09:47:06.404Z,26.80
2018-07-23T09:49:33.993Z,26.60
2018-07-23T09:52:01.551Z,26.50
2018-07-23T09:54:29.215Z,26.40
2018-07-23T09:56:56.689Z,26.40
2018-07-23T09:59:24.148Z,26.30
2018-07-23T10:01:51.604Z,26.50
2018-07-23T10:04:19.172Z,26.80
2018-07-23T10:06:47.071Z,26.80
2018-07-23T10:09:14.519Z,26.70
2018-07-23T10:11:42.018Z,26.10
2018-07-23T10:14:09.555Z,26.20
2018-07-23T10:16:37.147Z,26.40
2018-07-23T10:19:04.712Z,26.50
2018-07-23T10:21:32.216Z,26.80
2018-07-23T10:23:59.731Z,26.80
2018-07-23T10:26:27.227Z,26.90
2018-07-23T10:28:54.772Z,27.00
2018-07-23T10:31:22.507Z,27.30
2018-07-23T10:33:50.061Z,27.00
2018-07-23T10:36:17.608Z,27.30
2018-07-23T10:38:45.141Z,27.30
2018-07-23T10:41:12.709Z,27.30
2018-07-23T10:43:40.242Z,27.00
2018-07-23T10:46:07.995Z,27.10
2018-07-23T10:48:35.531Z,27.50
2018-07-23T10:51:03.095Z,27.50
2018-07-23T10:53:30.552Z,27.50
2018-07-23T10:55:58.131Z,27.70
2018-07-23T10:58:25.627Z,27.60
2018-07-23T11:00:53.108Z,27.70
2018-07-23T11:03:20.603Z,27.70
2018-07-23T11:05:48.191Z,27.90
2018-07-23T11:08:15.695Z,27.80
2018-07-23T11:10:56.760Z,27.70
2018-07-23T11:13:24.432Z,28.00
2018-07-23T11:15:51.952Z,28.10
2018-07-23T11:18:19.470Z,28.10
2018-07-23T11:20:46.998Z,28.10
2018-07-23T11:23:14.551Z,27.90
2018-07-23T11:25:42.112Z,27.40
2018-07-23T11:28:10.100Z,27.60
2018-07-23T11:30:37.639Z,28.10
2018-07-23T11:33:05.204Z,28.20
2018-07-23T11:35:32.717Z,28.10
2018-07-23T11:38:00.233Z,28.20
2018-07-23T11:40:27.780Z,28.00
2018-07-23T11:42:55.360Z,28.00
2018-07-23T11:45:22.964Z,27.80
2018-07-23T11:47:50.412Z,28.00
2018-07-23T11:50:18.148Z,28.10
2018-07-23T11:52:45.605Z,28.20
2018-07-23T11:55:13.152Z,28.50
2018-07-23T11:57:40.618Z,28.60
2018-07-23T12:00:08.165Z,28.70
2018-07-23T12:02:35.635Z,28.60
2018-07-23T12:05:03.356Z,28.50
2018-07-23T12:07:30.887Z,28.30
2018-07-23T12:09:58.516Z,28.30
2018-07-23T12:12:26.028Z,28.30
2018-07-23T12:14:53.696Z,28.40
2018-07-23T12:17:21.455Z,28.50
2018-07-23T12:19:49.005Z,28.40
2018-07-23T12:22:16.533Z,28.50
2018-07-23T12:24:44.504Z,28.50
2018-07-23T12:27:12.123Z,28.60
2018-07-23T12:29:39.648Z,28.60
2018-07-23T12:32:07.370Z,28.60
2018-07-23T12:34:34.951Z,28.50
2018-07-23T12:39:29.989Z,28.70
2018-07-23T12:41:57.503Z,28.80
2018-07-23T12:44:25.149Z,28.50
2018-07-23T12:46:52.744Z,28.40
2018-07-23T12:49:20.338Z,28.50
2018-07-23T12:51:47.931Z,28.40
2018-07-23T12:54:15.422Z,28.40
2018-07-23T12:56:42.963Z,28.40
2018-07-23T12:59:10.561Z,28.40
2018-07-23T13:01:38.092Z,28.50
2018-07-23T13:04:05.746Z,28.70
2018-07-23T13:06:33.290Z,28.70
2018-07-23T13:09:00.825Z,28.70
2018-07-23T13:11:28.380Z,28.70
2018-07-23T13:13:55.873Z,28.40
2018-07-23T13:16:23.655Z,28.60
2018-07-23T13:18:51.204Z,28.70
2018-07-23T13:21:19.074Z,28.50
2018-07-23T13:23:47.022Z,28.60
2018-07-23T13:26:14.560Z,28.50
2018-07-23T13:28:42.143Z,28.60
2018-07-23T13:31:09.712Z,28.70
2018-07-23T13:33:37.245Z,28.60
2018-07-23T13:36:04.836Z,28.50
2018-07-23T13:38:32.439Z,28.50
2018-07-23T13:40:59.899Z,28.40
2018-07-23T13:43:27.475Z,28.30
2018-07-23T13:45:54.948Z,28.20
2018-07-23T13:48:22.516Z,28.30
2018-07-23T13:50:50.035Z,28.40
2018-07-23T13:53:17.633Z,28.50
2018-07-23T13:55:45.267Z,28.60
2018-07-23T13:58:12.784Z,28.60
2018-07-23T14:00:40.292Z,28.70
2018-07-23T14:03:07.773Z,28.80
2018-07-23T14:05:35.695Z,28.70
2018-07-23T14:08:03.481Z,28.70
2018-07-23T14:10:31.266Z,28.70
2018-07-23T14:12:59.651Z,28.60
2018-07-23T14:15:27.219Z,28.50
2018-07-23T14:17:54.776Z,28.50
2018-07-23T14:20:22.251Z,28.40
2018-07-23T14:22:49.731Z,28.50
2018-07-23T14:25:17.460Z,28.50
2018-07-23T14:27:45.003Z,28.50
2018-07-23T14:30:12.494Z,28.60
2018-07-23T14:32:40.032Z,28.70
2018-07-23T14:35:07.495Z,28.70
2018-07-23T14:37:34.975Z,28.70
2018-07-23T14:40:02.800Z,28.60
2018-07-23T14:42:30.282Z,28.60
2018-07-23T14:44:57.871Z,28.60
2018-07-23T14:47:25.327Z,28.60
2018-07-23T14:49:52.840Z,28.60
2018-07-23T14:52:20.347Z,28.60
2018-07-23T14:54:47.851Z,28.50
2018-07-23T14:57:15.331Z,28.50
2018-07-23T14:59:42.869Z,28.60
2018-07-23T15:02:10.352Z,28.70
2018-07-23T15:04:38.093Z,28.70
2018-07-23T15:07:05.614Z,28.70
2018-07-23T15:09:33.116Z,28.60
2018-07-23T15:12:00.632Z,28.60
2018-07-23T15:14:28.474Z,28.60
2018-07-23T15:16:56.643Z,28.50
2018-07-23T15:19:24.160Z,28.50
2018-07-23T15:21:51.744Z,28.60
2018-07-23T15:24:20.231Z,28.50
2018-07-23T15:26:47.948Z,28.60
2018-07-23T15:29:15.652Z,28.70
2018-07-23T15:31:43.124Z,28.60
2018-07-23T15:34:11.329Z,28.60
2018-07-23T15:36:38.915Z,28.60
2018-07-23T15:39:08.099Z,28.60
2018-07-23T15:41:35.588Z,28.60
2018-07-23T15:44:03.378Z,28.40
2018-07-23T15:46:30.841Z,28.40
2018-07-23T15:51:25.731Z,28.50
2018-07-23T15:53:53.315Z,28.50
2018-07-23T15:56:20.845Z,28.50
2018-07-23T15:58:48.596Z,28.60
2018-07-23T16:03:43.781Z,28.50
2018-07-23T16:06:11.691Z,28.40
2018-07-23T16:08:39.343Z,28.50
2018-07-23T16:11:07.371Z,28.50
2018-07-23T16:13:34.988Z,28.60
2018-07-23T16:16:02.680Z,28.60
2018-07-23T16:18:30.345Z,28.50
2018-07-23T16:20:57.954Z,28.50
2018-07-23T16:23:25.515Z,28.50
2018-07-23T16:25:53.015Z,28.50
2018-07-23T16:28:20.541Z,28.50
2018-07-23T16:30:48.484Z,28.50
2018-07-23T16:33:16.044Z,28.50
2018-07-23T16:35:43.644Z,28.60
2018-07-23T16:40:38.782Z,28.60
2018-07-23T16:43:06.736Z,28.60
2018-07-23T16:45:34.473Z,28.50
2018-07-23T16:48:02.140Z,28.50
2018-07-23T16:50:29.685Z,28.40
2018-07-23T16:52:57.873Z,28.50
2018-07-23T16:55:25.485Z,28.50
2018-07-23T16:57:53.089Z,28.50
2018-07-23T17:00:20.673Z,28.50
2018-07-23T17:05:15.675Z,28.40
2018-07-23T17:07:43.172Z,28.30
2018-07-23T17:10:10.875Z,28.30
2018-07-23T17:12:39.870Z,28.30
2018-07-23T17:15:07.427Z,28.20
2018-07-23T17:17:35.018Z,28.20
2018-07-23T17:20:02.602Z,28.20
2018-07-23T17:22:30.220Z,28.20
2018-07-23T17:24:57.786Z,28.10
2018-07-23T17:27:25.306Z,28.20
2018-07-23T17:29:52.909Z,28.20
2018-07-23T17:32:20.525Z,28.00
2018-07-23T17:34:48.138Z,27.90
2018-07-23T17:37:15.711Z,27.80
2018-07-23T17:39:43.419Z,27.90
2018-07-23T17:42:11.316Z,27.80
2018-07-23T17:44:38.903Z,27.80
2018-07-23T17:47:06.435Z,27.80
2018-07-23T17:49:33.975Z,27.80
2018-07-23T17:52:01.508Z,27.80
2018-07-23T17:54:29.128Z,27.90
2018-07-23T17:56:56.696Z,27.90
2018-07-23T17:59:24.163Z,27.90
2018-07-23T18:01:51.691Z,27.90
2018-07-23T18:04:19.352Z,27.90
2018-07-23T18:06:46.937Z,27.90
2018-07-23T18:09:14.555Z,27.90
2018-07-23T18:11:42.611Z,27.70
2018-07-23T18:14:10.215Z,27.70
2018-07-23T18:16:37.766Z,27.70
2018-07-23T18:19:05.306Z,27.60
2018-07-23T18:21:32.807Z,27.60
2018-07-23T18:24:00.714Z,27.70
2018-07-23T18:26:28.243Z,27.60
2018-07-23T18:28:55.982Z,27.60
2018-07-23T18:31:23.530Z,27.60
2018-07-23T18:33:51.099Z,27.60
2018-07-23T18:36:19.272Z,27.40
2018-07-23T18:38:46.958Z,27.20
2018-07-23T18:41:14.569Z,27.20
2018-07-23T18:43:42.258Z,27.10
2018-07-23T18:46:09.736Z,27.00
2018-07-23T18:49:48.268Z,26.90
2018-07-23T18:52:17.039Z,26.90
2018-07-23T18:54:45.987Z,26.70
2018-07-23T18:57:13.651Z,26.70
2018-07-23T18:59:41.163Z,26.60
2018-07-23T19:02:10.332Z,26.50
2018-07-23T19:04:39.032Z,26.40
2018-07-23T19:07:07.085Z,26.30
2018-07-23T19:09:34.623Z,26.20
2018-07-23T19:14:29.761Z,26.10
2018-07-23T19:16:58.283Z,25.90
2018-07-23T19:19:25.958Z,25.70
2018-07-23T19:21:53.548Z,25.70
2018-07-23T19:24:21.147Z,25.60
2018-07-23T19:26:48.821Z,25.50
2018-07-23T19:30:00.211Z,25.50
2018-07-23T19:32:27.670Z,25.30
2018-07-23T19:34:55.215Z,25.30
2018-07-23T19:37:22.754Z,25.20
2018-07-23T19:39:50.191Z,25.10
2018-07-23T19:42:17.699Z,25.10
2018-07-23T19:44:45.228Z,25.10
2018-07-23T19:47:13.119Z,24.90
2018-07-23T19:49:40.872Z,24.70
2018-07-23T19:52:08.387Z,24.70
2018-07-23T19:54:35.878Z,24.60
2018-07-23T19:57:03.456Z,24.50
2018-07-23T19:59:31.323Z,24.50
2018-07-23T20:01:58.929Z,24.40
2018-07-23T20:04:26.608Z,24.30
2018-07-23T20:06:54.280Z,24.30
2018-07-23T20:09:21.800Z,24.20
2018-07-23T20:11:49.336Z,24.10
2018-07-23T20:14:16.882Z,24.00
2018-07-23T20:16:44.432Z,23.90
2018-07-23T20:19:12.063Z,23.90
2018-07-23T20:21:39.683Z,23.80
2018-07-23T20:24:07.311Z,23.70
2018-07-23T20:26:34.970Z,23.70
2018-07-23T20:29:02.563Z,23.60
2018-07-23T20:31:30.101Z,23.50
2018-07-23T20:33:58.396Z,23.40
2018-07-23T20:36:25.956Z,23.40
2018-07-23T20:38:54.225Z,23.30
2018-07-23T20:41:21.905Z,23.20
2018-07-23T20:43:49.573Z,23.20
2018-07-23T20:46:17.368Z,23.00
2018-07-23T20:48:46.384Z,23.00
2018-07-23T20:51:13.984Z,23.00
2018-07-23T20:53:41.769Z,22.90
2018-07-23T20:56:09.829Z,22.90
2018-07-23T20:58:37.579Z,23.00
2018-07-23T21:01:05.141Z,22.90
2018-07-23T21:03:33.699Z,22.80
2018-07-23T21:06:01.965Z,22.70
2018-07-23T21:08:29.764Z,22.70
2018-07-23T21:10:57.289Z,22.70
2018-07-23T21:13:24.853Z,22.60
2018-07-23T21:15:53.534Z,22.60
2018-07-23T21:18:21.140Z,22.50
2018-07-23T21:20:48.615Z,22.60
2018-07-23T21:23:16.120Z,22.50
2018-07-23T21:25:43.627Z,22.40
2018-07-23T21:28:11.608Z,22.30
2018-07-23T21:30:39.167Z,22.20
2018-07-23T21:33:06.766Z,22.20
2018-07-23T21:35:34.324Z,22.10
2018-07-23T21:38:01.876Z,22.20
2018-07-23T21:40:29.540Z,22.10
2018-07-23T21:42:57.216Z,22.10
2018-07-23T21:45:26.057Z,22.10
2018-07-23T21:47:53.572Z,22.10
2018-07-23T21:50:21.138Z,22.10
2018-07-23T21:52:48.659Z,22.10
2018-07-23T21:55:16.335Z,22.00
2018-07-23T21:57:43.982Z,21.90
2018-07-23T22:00:13.605Z,21.80
2018-07-23T22:02:41.506Z,21.70
2018-07-23T22:05:09.181Z,21.70
2018-07-23T22:07:36.707Z,21.60
2018-07-23T22:10:05.132Z,21.50
2018-07-23T22:12:32.665Z,21.50
2018-07-23T22:15:00.285Z,21.50
2018-07-23T22:17:27.981Z,21.40
2018-07-23T22:19:55.688Z,21.40
2018-07-23T22:22:23.217Z,21.40
2018-07-23T22:24:50.790Z,21.60
2018-07-23T22:27:18.401Z,21.60
2018-07-23T22:29:46.005Z,21.50
2018-07-23T22:32:13.549Z,21.40
2018-07-23T22:34:41.356Z,21.40
2018-07-23T22:37:09.236Z,21.30
2018-07-23T22:39:36.844Z,21.20
2018-07-23T22:42:04.518Z,21.20
2018-07-23T22:44:32.197Z,21.30
2018-07-23T22:47:00.034Z,21.30
2018-07-23T22:49:27.548Z,21.20
2018-07-23T22:51:55.092Z,21.10
2018-07-23T22:54:22.637Z,21.10
2018-07-23T22:56:50.189Z,21.00
2018-07-23T22:59:17.812Z,21.00
2018-07-23T23:01:46.049Z,20.90
2018-07-23T23:04:13.785Z,20.80
2018-07-23T23:06:41.301Z,20.70
2018-07-23T23:09:09.872Z,20.70
2018-07-23T23:11:37.633Z,20.60
2018-07-23T23:14:05.213Z,20.50
2018-07-23T23:16:32.858Z,20.50
2018-07-23T23:19:00.465Z,20.50
2018-07-23T23:21:28.206Z,20.40
2018-07-23T23:23:55.778Z,20.40
2018-07-23T23:26:23.315Z,20.40
2018-07-23T23:28:50.862Z,20.50
2018-07-23T23:31:18.391Z,20.50
2018-07-23T23:36:13.561Z,20.60
2018-07-23T23:38:41.947Z,20.50
2018-07-23T23:41:09.501Z,20.50
2018-07-23T23:43:37.158Z,20.50
2018-07-23T23:46:05.754Z,20.60
2018-07-23T23:48:33.320Z,20.60
2018-07-23T23:51:00.904Z,20.50
2018-07-23T23:53:28.412Z,20.40
2018-07-23T23:55:55.985Z,20.40
2018-07-23T23:58:23.484Z,20.30
